Time;durP1;ratioP1;P1;durP2;ratioP2;P2;SDS_P1;SDS_P2;PMS_P1;PMS_P2;Temp;Humidity;BMP_temperature;BMP_pressure;BME280_temperature;BME280_humidity;BME280_pressure;Samples;Min_cycle;Max_cycle;Signal;HPM_P1;HPM_P2
2023/08/03 00:01:30;;;;;;;0.77;0.60;;;16.70;99.90;;;;;;5114980;28;20222;-49
2023/08/03 00:04:00;;;;;;;2.37;0.73;;;16.70;99.90;;;;;;5096791;28;20269;-49
2023/08/03 00:06:27;;;;;;;4.07;0.83;;;16.60;99.90;;;;;;5096638;28;20206;-48
2023/08/03 00:08:54;;;;;;;1.93;0.70;;;16.70;99.90;;;;;;5114740;28;20198;-49
2023/08/03 00:11:20;;;;;;;7.40;0.83;;;16.60;99.90;;;;;;5114824;28;20189;-50
2023/08/03 00:13:45;;;;;;;1.60;0.63;;;16.60;99.90;;;;;;5114846;28;20179;-47
2023/08/03 00:16:11;;;;;;;5.10;0.60;;;16.60;99.90;;;;;;5114676;28;20320;-48
2023/08/03 00:25:25;;;;;;;1.37;0.70;;;16.60;99.90;;;;;;5114201;28;20638;-48
2023/08/03 00:27:55;;;;;;;1.63;0.80;;;16.50;99.90;;;;;;5115383;28;20186;-49
2023/08/03 00:30:21;;;;;;;5.13;0.67;;;16.50;99.90;;;;;;5115704;28;20174;-48
2023/08/03 00:32:47;;;;;;;2.00;0.60;;;16.50;99.90;;;;;;5114734;28;20170;-48
2023/08/03 00:35:12;;;;;;;1.60;0.60;;;16.50;99.90;;;;;;5096043;28;20217;-48
2023/08/03 00:37:39;;;;;;;1.33;0.57;;;16.50;99.90;;;;;;5115028;28;20180;-49
2023/08/03 00:40:06;;;;;;;2.87;0.50;;;16.60;99.90;;;;;;5114282;28;20186;-48
2023/08/03 00:42:32;;;;;;;2.63;0.67;;;16.60;99.90;;;;;;5095868;28;20292;-48
2023/08/03 00:44:57;;;;;;;3.00;0.67;;;16.60;99.90;;;;;;5114279;28;20258;-49
2023/08/03 00:47:24;;;;;;;2.67;0.60;;;16.60;99.90;;;;;;5114199;28;20546;-49
2023/08/03 00:49:50;;;;;;;1.70;0.70;;;16.60;99.90;;;;;;5114523;28;20273;-48
2023/08/03 00:52:16;;;;;;;2.97;0.87;;;16.60;99.90;;;;;;5114113;28;20265;-48
2023/08/03 00:54:43;;;;;;;4.77;0.80;;;16.60;99.90;;;;;;5096708;28;20276;-48
2023/08/03 00:57:08;;;;;;;4.23;1.00;;;16.60;99.90;;;;;;5096400;28;20298;-47
2023/08/03 00:59:35;;;;;;;1.40;0.70;;;16.60;99.90;;;;;;5113998;28;20206;-50
2023/08/03 01:02:01;;;;;;;1.57;0.80;;;16.60;99.90;;;;;;5114060;28;20198;-48
2023/08/03 01:04:27;;;;;;;3.27;0.63;;;16.60;99.90;;;;;;5114254;28;20658;-49
2023/08/03 01:06:52;;;;;;;1.13;0.50;;;16.60;99.90;;;;;;5078856;28;20212;-48
2023/08/03 01:09:18;;;;;;;2.53;0.83;;;16.60;99.90;;;;;;5095699;28;20182;-47
2023/08/03 01:11:46;;;;;;;2.40;0.70;;;16.50;99.90;;;;;;5095768;28;20744;-49
2023/08/03 01:14:11;;;;;;;1.27;0.73;;;16.50;99.90;;;;;;5114174;28;20629;-49
2023/08/03 01:16:37;;;;;;;2.27;0.73;;;16.50;99.90;;;;;;5113831;28;20217;-47
2023/08/03 01:19:03;;;;;;;1.33;0.60;;;16.60;99.90;;;;;;5114175;28;20228;-48
2023/08/03 01:21:32;;;;;;;1.17;0.67;;;16.50;99.90;;;;;;5115078;28;20728;-51
2023/08/03 01:23:59;;;;;;;2.07;0.93;;;16.50;99.90;;;;;;5118324;28;20185;-47
2023/08/03 01:26:25;;;;;;;2.70;0.70;;;16.50;99.90;;;;;;5118062;28;20678;-46
2023/08/03 01:28:50;;;;;;;2.73;0.67;;;16.50;99.90;;;;;;5117982;28;20178;-48
2023/08/03 01:31:19;;;;;;;2.63;0.50;;;16.50;99.90;;;;;;5118444;28;20178;-46
2023/08/03 01:33:46;;;;;;;6.37;0.80;;;16.50;99.90;;;;;;5099712;28;20263;-48
2023/08/03 01:36:13;;;;;;;1.90;0.73;;;16.50;99.90;;;;;;5118017;28;20738;-50
2023/08/03 01:38:39;;;;;;;2.37;0.67;;;16.50;99.90;;;;;;5082507;28;20235;-48
2023/08/03 01:41:05;;;;;;;1.47;0.67;;;16.50;99.90;;;;;;5117683;28;20186;-48
2023/08/03 01:43:35;;;;;;;3.17;0.90;;;16.50;99.90;;;;;;5099513;28;20263;-47
2023/08/03 01:46:01;;;;;;;2.00;0.60;;;16.60;99.90;;;;;;5082639;28;20681;-48
2023/08/03 01:48:31;;;;;;;5.37;0.87;;;16.60;99.90;;;;;;5117748;28;20174;-47
2023/08/03 01:50:57;;;;;;;1.73;0.70;;;16.60;99.90;;;;;;5118187;28;20174;-47
2023/08/03 01:53:25;;;;;;;2.57;0.70;;;16.60;99.90;;;;;;5117852;28;20198;-47
2023/08/03 01:55:51;;;;;;;2.00;0.70;;;16.60;99.90;;;;;;5117682;28;20206;-48
2023/08/03 01:58:18;;;;;;;1.27;0.83;;;16.60;99.90;;;;;;5117736;28;20265;-47
2023/08/03 02:00:45;;;;;;;2.73;0.83;;;16.60;99.90;;;;;;5117682;28;20202;-47
2023/08/03 02:03:11;;;;;;;1.23;0.67;;;16.60;99.90;;;;;;5117972;28;20297;-47
2023/08/03 02:05:38;;;;;;;2.13;0.60;;;16.60;99.90;;;;;;5100129;28;20202;-47
2023/08/03 02:08:04;;;;;;;1.97;0.80;;;16.60;99.90;;;;;;5117627;28;20182;-42
2023/08/03 05:47:50;;;;;;;0.87;0.40;;;16.60;99.90;;;;;;5112742;28;20217;-49
2023/08/03 05:50:18;;;;;;;2.83;0.60;;;16.50;99.90;;;;;;5113754;28;20191;-49
2023/08/03 05:52:44;;;;;;;1.73;0.63;;;16.50;99.90;;;;;;5095530;28;20187;-49
2023/08/03 05:55:13;;;;;;;4.07;0.80;;;16.50;99.90;;;;;;5113582;28;20198;-50
2023/08/03 05:57:39;;;;;;;1.07;0.50;;;16.40;99.90;;;;;;5113503;28;20182;-49
2023/08/03 06:00:14;;;;;;;1.03;0.50;;;16.40;99.90;;;;;;5095321;28;20197;-48
2023/08/03 06:02:41;;;;;;;3.50;0.70;;;16.30;99.90;;;;;;5095733;28;20677;-49
2023/08/03 06:05:32;;;;;;;0.87;0.57;;;16.30;99.90;;;;;;5114289;28;20183;-49
2023/08/03 06:07:58;;;;;;;1.20;0.57;;;16.30;99.90;;;;;;5116040;28;20186;-49
2023/08/03 06:10:24;;;;;;;2.73;0.50;;;16.30;99.90;;;;;;5117423;28;20324;-48
2023/08/03 06:12:49;;;;;;;2.03;1.00;;;16.30;99.90;;;;;;5117624;28;20186;-47
2023/08/03 06:15:17;;;;;;;1.23;0.87;;;16.30;99.90;;;;;;5117109;28;20269;-48
2023/08/03 06:17:43;;;;;;;1.73;0.60;;;16.30;99.90;;;;;;5098871;28;20189;-48
2023/08/03 06:20:13;;;;;;;1.40;0.60;;;16.30;99.90;;;;;;5117279;28;20183;-48
2023/08/03 06:22:39;;;;;;;2.10;0.40;;;16.30;99.90;;;;;;5099072;28;20216;-48
2023/08/03 06:25:09;;;;;;;2.73;0.60;;;16.30;99.90;;;;;;5098886;28;20186;-48
2023/08/03 06:27:35;;;;;;;3.27;0.60;;;16.30;99.90;;;;;;5117177;28;20206;-48
2023/08/03 06:30:01;;;;;;;1.13;0.70;;;16.20;99.90;;;;;;5117808;28;20190;-49
2023/08/03 06:32:32;;;;;;;1.47;0.60;;;16.20;99.90;;;;;;5117459;28;20218;-48
2023/08/03 06:34:59;;;;;;;1.40;0.50;;;16.20;99.90;;;;;;5098775;28;20174;-47
2023/08/03 06:37:27;;;;;;;1.23;0.67;;;16.20;99.90;;;;;;5081775;28;20202;-48
2023/08/03 06:39:53;;;;;;;1.10;0.60;;;16.20;99.90;;;;;;5117034;28;20259;-47
2023/08/03 06:42:19;;;;;;;2.73;0.97;;;16.10;99.90;;;;;;5116729;28;20198;-48
2023/08/03 06:44:45;;;;;;;3.80;0.60;;;16.10;99.90;;;;;;5116957;28;20174;-49
2023/08/03 06:47:11;;;;;;;2.17;0.60;;;16.10;99.90;;;;;;5116884;28;20561;-46
2023/08/03 06:49:37;;;;;;;2.67;0.50;;;16.10;99.90;;;;;;5116752;28;20676;-48
2023/08/03 06:52:03;;;;;;;1.90;0.60;;;16.10;99.90;;;;;;5116405;28;20198;-49
2023/08/03 06:54:29;;;;;;;4.03;0.93;;;16.20;99.90;;;;;;5098413;28;20583;-49
2023/08/03 06:56:55;;;;;;;0.80;0.43;;;16.20;99.90;;;;;;5097967;28;20213;-47
2023/08/03 06:59:23;;;;;;;1.63;0.60;;;16.30;99.90;;;;;;5098832;28;20197;-47
2023/08/03 07:01:50;;;;;;;1.33;0.50;;;16.30;99.90;;;;;;5116536;28;20202;-48
2023/08/03 07:04:16;;;;;;;0.87;0.53;;;16.30;99.90;;;;;;5097940;28;20178;-47
2023/08/03 07:06:45;;;;;;;2.27;0.60;;;16.30;99.90;;;;;;5097947;28;20209;-46
2023/08/03 07:09:10;;;;;;;3.77;0.90;;;16.30;99.90;;;;;;5116259;28;20179;-47
2023/08/03 07:11:37;;;;;;;4.80;0.60;;;16.40;99.90;;;;;;5116427;28;20205;-47
2023/08/03 07:14:03;;;;;;;1.33;0.70;;;16.40;99.90;;;;;;5097765;28;20200;-47
2023/08/03 07:16:28;;;;;;;1.47;0.60;;;16.40;99.90;;;;;;5115840;28;20285;-48
2023/08/03 07:18:55;;;;;;;7.03;1.00;;;16.40;99.90;;;;;;5114973;28;20202;-48
2023/08/03 07:21:20;;;;;;;1.03;0.70;;;16.40;99.90;;;;;;5116172;28;20190;-50
2023/08/03 07:23:46;;;;;;;1.13;0.67;;;16.40;99.90;;;;;;5115737;28;20213;-47
2023/08/03 07:26:15;;;;;;;1.57;0.60;;;16.50;99.90;;;;;;5115897;28;20596;-47
2023/08/03 07:28:42;;;;;;;2.87;0.70;;;16.50;99.90;;;;;;5115870;28;20182;-48
2023/08/03 07:31:14;;;;;;;3.20;0.77;;;16.60;99.90;;;;;;5097523;28;20179;-49
2023/08/03 07:33:40;;;;;;;2.17;0.73;;;16.60;99.90;;;;;;5115794;28;20210;-49
2023/08/03 07:36:05;;;;;;;2.97;0.80;;;16.60;99.90;;;;;;5115635;28;20194;-50
2023/08/03 07:38:31;;;;;;;0.87;0.47;;;16.50;99.90;;;;;;5115832;28;20589;-48
2023/08/03 07:40:57;;;;;;;0.67;0.50;;;16.50;99.90;;;;;;5097139;28;20194;-48
2023/08/03 07:43:23;;;;;;;1.27;0.73;;;16.50;99.90;;;;;;5115417;28;20259;-48
2023/08/03 07:45:48;;;;;;;2.63;0.60;;;16.50;99.90;;;;;;5097203;28;20202;-47
2023/08/03 07:48:14;;;;;;;1.30;0.60;;;16.50;99.90;;;;;;5115342;28;20518;-47
2023/08/03 07:50:40;;;;;;;1.90;0.40;;;16.60;99.90;;;;;;5115363;28;20186;-48
2023/08/03 07:53:05;;;;;;;0.87;0.67;;;16.50;99.90;;;;;;5097842;28;20269;-48
2023/08/03 07:55:34;;;;;;;1.83;0.70;;;16.50;99.90;;;;;;5115338;28;20233;-48
2023/08/03 07:57:59;;;;;;;0.90;0.60;;;16.60;99.90;;;;;;5097494;28;20280;-43
2023/08/03 08:00:25;;;;;;;0.90;0.30;;;16.60;99.90;;;;;;5115807;28;20269;-49
2023/08/03 08:02:51;;;;;;;3.57;0.77;;;16.60;99.90;;;;;;5116085;28;20198;-45
2023/08/03 08:05:17;;;;;;;3.10;0.60;;;16.70;99.90;;;;;;5097577;28;20190;-43
2023/08/03 08:07:49;;;;;;;0.60;0.47;;;16.80;99.90;;;;;;5097651;28;20255;-44
2023/08/03 08:10:15;;;;;;;1.47;0.60;;;16.90;99.90;;;;;;5115269;28;20170;-48
2023/08/03 08:12:40;;;;;;;1.73;0.53;;;16.90;99.90;;;;;;5115861;28;20689;-43
2023/08/03 08:15:06;;;;;;;2.60;0.50;;;17.00;99.90;;;;;;5097359;28;20613;-46
2023/08/03 08:17:32;;;;;;;3.13;0.80;;;17.20;99.90;;;;;;5115689;28;20202;-44
2023/08/03 08:19:59;;;;;;;2.57;0.53;;;17.20;99.90;;;;;;5097390;28;20193;-45
2023/08/03 08:22:25;;;;;;;3.13;0.50;;;17.30;99.90;;;;;;5097169;28;20206;-45
2023/08/03 08:24:51;;;;;;;1.80;0.73;;;17.40;99.90;;;;;;5115648;28;20188;-45
2023/08/03 08:27:19;;;;;;;3.03;0.70;;;17.50;99.90;;;;;;5115510;28;20202;-42
2023/08/03 08:29:46;;;;;;;2.13;0.60;;;17.50;99.90;;;;;;5096673;28;20179;-44
2023/08/03 08:32:12;;;;;;;1.80;0.70;;;17.60;99.90;;;;;;5115741;28;20206;-47
2023/08/03 08:34:37;;;;;;;2.87;0.70;;;17.60;99.90;;;;;;5115375;28;20672;-49
2023/08/03 08:37:03;;;;;;;2.20;0.50;;;17.70;99.90;;;;;;5115311;28;20212;-49
2023/08/03 08:39:29;;;;;;;0.83;0.50;;;17.70;99.90;;;;;;5115401;28;20637;-48
2023/08/03 08:41:55;;;;;;;3.43;0.90;;;17.80;99.90;;;;;;5096989;28;20197;-44
2023/08/03 08:44:21;;;;;;;2.07;0.60;;;17.80;99.90;;;;;;5097046;28;20190;-42
2023/08/03 08:46:46;;;;;;;4.30;0.80;;;17.80;99.90;;;;;;5079836;28;20206;-48
2023/08/03 08:49:14;;;;;;;4.17;1.23;;;17.80;99.90;;;;;;5115174;28;20611;-45
2023/08/03 08:51:43;;;;;;;3.90;0.70;;;17.80;99.90;;;;;;5096761;28;20190;-44
2023/08/03 08:54:09;;;;;;;3.83;0.80;;;17.80;99.90;;;;;;5096897;28;20238;-49
2023/08/03 08:56:36;;;;;;;3.23;0.73;;;17.80;99.90;;;;;;5114931;28;20571;-49
2023/08/03 08:59:02;;;;;;;0.63;0.53;;;18.00;99.90;;;;;;5115473;28;20657;-48
2023/08/03 09:01:46;;;;;;;2.77;0.90;;;18.00;99.90;;;;;;5080821;28;20182;-49
2023/08/03 09:04:12;;;;;;;3.97;0.97;;;18.10;99.90;;;;;;5115982;28;20206;-49
2023/08/03 09:06:44;;;;;;;1.50;0.80;;;18.20;99.90;;;;;;5116835;28;20260;-45
2023/08/03 09:09:10;;;;;;;2.30;0.80;;;18.20;99.90;;;;;;5097942;28;20255;-47
2023/08/03 09:11:40;;;;;;;1.60;0.60;;;18.20;99.90;;;;;;5097908;28;20652;-45
2023/08/03 09:14:07;;;;;;;2.97;0.97;;;18.20;99.90;;;;;;5115415;28;20232;-43
2023/08/03 09:16:33;;;;;;;5.23;0.97;;;18.20;99.90;;;;;;5113954;28;20215;-43
2023/08/03 09:18:59;;;;;;;1.60;1.03;;;18.20;99.90;;;;;;5114089;28;20185;-44
2023/08/03 09:21:25;;;;;;;4.97;1.10;;;18.40;99.90;;;;;;5095597;28;20182;-44
2023/08/03 09:23:50;;;;;;;5.10;0.90;;;18.40;99.90;;;;;;5113795;28;20692;-46
2023/08/03 09:26:25;;;;;;;1.50;0.80;;;18.40;99.90;;;;;;5114051;28;20205;-44
2023/08/03 09:28:51;;;;;;;3.10;1.03;;;18.50;99.90;;;;;;5095700;28;20193;-43
2023/08/03 09:31:25;;;;;;;1.93;1.10;;;18.60;99.90;;;;;;5095581;28;20190;-43
2023/08/03 09:34:00;;;;;;;3.27;0.90;;;18.60;99.90;;;;;;5096381;28;20171;-45
2023/08/03 09:36:27;;;;;;;2.73;1.20;;;18.80;99.90;;;;;;5095524;28;20262;-43
2023/08/03 09:39:08;;;;;;;2.43;1.03;;;18.90;99.90;;;;;;5095645;28;20202;-43
2023/08/03 09:41:36;;;;;;;4.40;1.10;;;18.90;99.90;;;;;;5113720;28;20702;-44
2023/08/03 09:44:04;;;;;;;2.93;1.10;;;18.90;99.90;;;;;;5117729;28;20179;-47
2023/08/03 09:46:32;;;;;;;3.77;1.10;;;18.90;99.90;;;;;;5099584;28;20237;-43
2023/08/03 09:48:58;;;;;;;3.63;1.27;;;18.80;99.90;;;;;;5117917;28;20188;-43
2023/08/03 09:51:29;;;;;;;5.10;1.20;;;18.70;99.90;;;;;;5099611;28;20288;-46
2023/08/03 09:54:23;;;;;;;6.97;1.10;;;18.70;99.90;;;;;;5099490;28;20190;-44
2023/08/03 09:56:53;;;;;;;3.67;1.50;;;18.60;99.90;;;;;;5118704;28;20666;-45
2023/08/03 09:59:25;;;;;;;3.27;1.27;;;18.60;99.90;;;;;;5119292;28;20221;-44
2023/08/03 10:01:56;;;;;;;2.83;1.30;;;18.60;99.90;;;;;;5100871;28;20579;-44
2023/08/03 10:04:24;;;;;;;3.17;1.50;;;18.60;99.90;;;;;;5119211;28;20171;-44
2023/08/03 10:06:54;;;;;;;3.07;1.20;;;18.60;99.90;;;;;;5117651;28;20210;-44
2023/08/03 10:09:24;;;;;;;6.17;1.83;;;18.60;99.90;;;;;;5117422;28;20228;-45
2023/08/03 10:11:53;;;;;;;5.13;1.10;;;18.60;99.90;;;;;;5099071;28;20186;-45
2023/08/03 10:14:30;;;;;;;4.43;1.50;;;18.70;99.90;;;;;;5117359;28;20205;-43
2023/08/03 10:16:58;;;;;;;4.27;1.57;;;18.70;99.90;;;;;;5099246;28;20205;-44
2023/08/03 10:19:24;;;;;;;5.57;1.47;;;18.60;99.90;;;;;;5082335;28;20185;-42
2023/08/03 10:21:50;;;;;;;3.50;2.00;;;18.70;99.90;;;;;;5117396;28;20182;-45
2023/08/03 10:24:20;;;;;;;3.17;1.47;;;18.60;99.90;;;;;;5117358;28;20633;-44
2023/08/03 10:26:54;;;;;;;3.77;1.33;;;18.60;99.90;;;;;;5098744;28;20229;-44
2023/08/03 10:29:52;;;;;;;3.37;1.23;;;18.70;99.90;;;;;;5098830;28;20253;-44
2023/08/03 10:32:22;;;;;;;4.33;1.23;;;18.80;99.90;;;;;;5099008;28;20256;-43
2023/08/03 10:34:51;;;;;;;4.07;1.40;;;18.90;99.90;;;;;;5117136;28;20174;-44
2023/08/03 10:37:16;;;;;;;3.23;1.40;;;19.10;99.90;;;;;;5098590;28;20210;-44
2023/08/03 10:40:01;;;;;;;5.17;1.30;;;19.20;99.90;;;;;;5098836;28;20607;-45
2023/08/03 10:42:32;;;;;;;3.60;1.00;;;19.50;99.90;;;;;;5098455;28;20266;-44
2023/08/03 10:45:23;;;;;;;6.13;1.30;;;19.70;99.90;;;;;;5117022;28;20166;-46
2023/08/03 10:47:49;;;;;;;3.17;1.30;;;19.80;99.90;;;;;;5098714;28;20235;-45
2023/08/03 10:50:15;;;;;;;2.63;1.40;;;19.90;99.90;;;;;;5098211;28;20202;-45
2023/08/03 10:52:41;;;;;;;7.40;1.33;;;19.90;99.90;;;;;;5098335;28;20187;-45
2023/08/03 10:55:33;;;;;;;6.30;1.60;;;19.90;99.90;;;;;;5115190;28;20285;-45
2023/08/03 10:57:58;;;;;;;7.43;2.17;;;19.80;99.90;;;;;;5113507;28;20194;-46
2023/08/03 11:00:24;;;;;;;2.30;1.20;;;19.70;99.90;;;;;;5116596;28;20195;-44
2023/08/03 11:02:50;;;;;;;4.47;1.70;;;19.70;99.90;;;;;;5097910;28;20585;-45
2023/08/03 11:05:15;;;;;;;5.30;1.53;;;19.50;99.90;;;;;;5097945;28;20703;-45
2023/08/03 11:07:46;;;;;;;3.27;1.40;;;19.40;99.90;;;;;;5116532;28;20183;-45
2023/08/03 11:10:14;;;;;;;2.53;1.53;;;19.40;99.90;;;;;;5098009;28;20190;-45
2023/08/03 11:12:41;;;;;;;3.00;1.30;;;19.50;99.90;;;;;;5116187;28;20182;-47
2023/08/03 11:15:08;;;;;;;3.27;1.30;;;19.60;99.90;;;;;;5097888;28;20194;-46
2023/08/03 11:17:36;;;;;;;2.47;1.10;;;19.80;99.90;;;;;;5115864;28;20214;-44
2023/08/03 11:20:03;;;;;;;5.17;1.50;;;19.90;99.90;;;;;;5116169;28;20266;-45
2023/08/03 11:22:30;;;;;;;6.07;1.43;;;20.10;99.90;;;;;;5097639;28;20216;-45
2023/08/03 11:24:57;;;;;;;5.70;1.40;;;20.30;99.90;;;;;;5115956;28;20638;-46
2023/08/03 11:27:23;;;;;;;4.00;1.30;;;20.30;99.90;;;;;;5115719;28;20213;-43
2023/08/03 11:29:50;;;;;;;2.60;1.20;;;20.30;99.90;;;;;;5116371;28;20189;-43
2023/08/03 11:32:27;;;;;;;4.27;1.40;;;20.20;99.90;;;;;;5115811;28;20259;-44
2023/08/03 11:35:11;;;;;;;3.70;1.40;;;20.10;99.90;;;;;;5115626;28;20193;-45
2023/08/03 11:37:38;;;;;;;2.67;1.43;;;19.90;99.90;;;;;;5115667;28;20173;-44
2023/08/03 11:40:05;;;;;;;3.37;1.20;;;19.80;99.90;;;;;;5097279;28;20197;-44
2023/08/03 11:42:33;;;;;;;3.70;1.00;;;19.80;99.90;;;;;;5115778;28;20285;-44
2023/08/03 11:44:59;;;;;;;2.43;1.30;;;19.70;99.90;;;;;;5115469;28;20213;-45
2023/08/03 11:47:25;;;;;;;4.47;1.57;;;19.70;99.90;;;;;;5097084;28;20238;-45
2023/08/03 11:49:52;;;;;;;2.40;1.20;;;19.70;99.90;;;;;;5096915;28;20681;-45
2023/08/03 11:52:19;;;;;;;3.90;1.07;;;19.90;99.90;;;;;;5115858;28;20174;-44
2023/08/03 11:54:45;;;;;;;3.40;1.20;;;20.10;99.90;;;;;;5115177;28;20190;-45
2023/08/03 11:59:55;;;;;;;3.70;0.90;;;20.20;99.90;;;;;;5115523;28;20181;-44
2023/08/03 12:02:41;;;;;;;2.53;1.17;;;20.40;99.90;;;;;;5096843;28;20214;-46
2023/08/03 12:05:08;;;;;;;3.90;0.90;;;20.60;99.90;;;;;;5114935;28;20208;-44
2023/08/03 12:07:34;;;;;;;3.50;1.00;;;20.80;99.90;;;;;;5079694;28;20206;-45
2023/08/03 12:10:00;;;;;;;5.00;1.17;;;21.00;99.90;;;;;;5115322;28;20604;-44
2023/08/03 12:12:26;;;;;;;7.20;1.13;;;21.00;99.90;;;;;;5114902;28;20303;-45
2023/08/03 12:14:51;;;;;;;3.93;1.20;;;21.10;99.90;;;;;;5115128;28;20573;-45
2023/08/03 12:17:17;;;;;;;3.13;1.20;;;21.00;99.90;;;;;;5096626;28;20210;-44
2023/08/03 12:19:43;;;;;;;8.63;1.57;;;21.00;99.90;;;;;;5114797;28;20193;-46
2023/08/03 12:22:09;;;;;;;5.40;1.10;;;21.00;99.90;;;;;;5097697;28;20217;-46
2023/08/03 12:24:35;;;;;;;4.83;1.07;;;20.90;99.90;;;;;;5098051;28;20186;-49
2023/08/03 12:27:02;;;;;;;2.57;1.10;;;20.80;99.90;;;;;;5116650;28;20202;-51
2023/08/03 12:29:28;;;;;;;2.07;0.80;;;20.80;99.90;;;;;;5115887;28;20208;-46
2023/08/03 12:31:54;;;;;;;2.07;0.90;;;20.70;99.90;;;;;;5115856;28;20175;-44
2023/08/03 12:34:19;;;;;;;4.10;1.10;;;20.60;99.90;;;;;;5116359;28;20174;-45
2023/08/03 12:36:45;;;;;;;2.80;0.90;;;20.50;99.90;;;;;;5115680;28;20240;-45
2023/08/03 12:39:11;;;;;;;1.50;1.40;;;20.50;99.90;;;;;;5116233;28;20265;-50
2023/08/03 12:41:36;;;;;;;3.40;1.00;;;20.50;99.90;;;;;;5115657;28;20178;-50
2023/08/03 12:44:03;;;;;;;2.67;1.10;;;20.40;99.90;;;;;;5116172;28;20224;-45
2023/08/03 12:46:29;;;;;;;2.37;1.20;;;20.50;99.90;;;;;;5116106;28;20210;-45
2023/08/03 12:48:58;;;;;;;2.27;1.10;;;20.50;99.90;;;;;;5114440;28;20257;-45
2023/08/03 12:51:23;;;;;;;2.97;1.10;;;20.60;99.90;;;;;;5114125;28;20194;-43
2023/08/03 12:53:50;;;;;;;2.17;0.90;;;20.60;99.90;;;;;;5114214;28;20553;-46
2023/08/03 12:56:18;;;;;;;2.73;1.00;;;20.60;99.90;;;;;;5095773;28;20232;-44
2023/08/03 12:58:44;;;;;;;3.10;0.90;;;20.60;99.90;;;;;;5113752;28;20201;-44
2023/08/03 13:01:11;;;;;;;1.40;0.83;;;20.60;99.90;;;;;;5095953;28;20193;-45
2023/08/03 13:03:40;;;;;;;1.30;0.60;;;20.60;99.90;;;;;;5095799;28;20585;-44
2023/08/03 13:06:08;;;;;;;2.00;0.97;;;20.60;99.90;;;;;;5114805;28;20278;-45
2023/08/03 13:08:37;;;;;;;0.77;0.73;;;20.60;99.90;;;;;;5096349;28;20202;-46
2023/08/03 13:11:03;;;;;;;2.07;1.00;;;20.60;99.90;;;;;;5095782;28;20201;-46
2023/08/03 13:13:32;;;;;;;6.20;1.17;;;20.70;99.90;;;;;;5095836;28;20190;-44
2023/08/03 13:15:58;;;;;;;1.50;0.70;;;20.70;99.90;;;;;;5113943;28;20339;-50
2023/08/03 13:18:23;;;;;;;4.40;0.80;;;20.80;99.90;;;;;;5094896;28;20281;-49
2023/08/03 13:20:49;;;;;;;1.50;0.90;;;20.80;99.90;;;;;;5113962;28;20257;-50
2023/08/03 13:23:15;;;;;;;2.83;1.07;;;20.80;99.90;;;;;;5113818;28;20213;-48
2023/08/03 13:25:41;;;;;;;1.20;0.80;;;20.60;99.90;;;;;;5095480;28;20800;-49
2023/08/03 13:28:06;;;;;;;1.50;0.70;;;20.40;99.90;;;;;;5113835;28;20186;-50
2023/08/03 13:30:32;;;;;;;2.17;0.77;;;20.20;99.90;;;;;;5095548;28;20688;-50
2023/08/03 13:32:58;;;;;;;1.10;0.60;;;20.10;99.90;;;;;;5113745;28;20267;-50
2023/08/03 13:35:23;;;;;;;1.63;0.80;;;19.90;99.90;;;;;;5113868;28;20190;-49
2023/08/03 13:37:49;;;;;;;1.33;0.67;;;20.00;99.90;;;;;;5095608;28;20729;-49
2023/08/03 13:40:15;;;;;;;1.07;0.70;;;20.00;99.90;;;;;;5095611;28;20197;-49
2023/08/03 13:42:41;;;;;;;1.30;0.73;;;19.90;99.90;;;;;;5113862;28;20210;-50
2023/08/03 13:45:07;;;;;;;2.63;0.87;;;19.70;99.90;;;;;;5113592;28;20186;-48
2023/08/03 13:47:33;;;;;;;0.97;0.80;;;19.60;99.90;;;;;;5078462;28;20213;-50
2023/08/03 13:49:59;;;;;;;2.07;0.87;;;19.40;99.90;;;;;;5113404;28;20657;-50
2023/08/03 13:52:25;;;;;;;3.67;0.80;;;19.30;99.90;;;;;;5113947;28;20174;-50
2023/08/03 13:54:51;;;;;;;2.70;0.70;;;19.20;99.90;;;;;;5113543;28;20243;-49
2023/08/03 13:57:18;;;;;;;1.10;0.70;;;19.10;99.90;;;;;;5095178;28;20206;-48
2023/08/03 13:59:45;;;;;;;2.83;0.70;;;19.10;99.90;;;;;;5113718;28;20203;-49
2023/08/03 14:02:12;;;;;;;1.50;0.70;;;19.20;99.90;;;;;;5113361;28;20210;-51
2023/08/03 14:04:38;;;;;;;1.27;0.70;;;19.10;99.90;;;;;;5095364;28;20721;-49
2023/08/03 14:07:04;;;;;;;2.77;0.70;;;19.10;99.90;;;;;;5095150;28;20218;-48
2023/08/03 14:09:30;;;;;;;0.50;0.50;;;19.00;99.90;;;;;;5113374;28;20198;-49
2023/08/03 14:11:57;;;;;;;1.03;0.50;;;19.00;99.90;;;;;;5095326;28;20187;-48
2023/08/03 14:14:23;;;;;;;1.07;0.40;;;18.90;99.90;;;;;;5113707;28;20187;-49
2023/08/03 14:16:49;;;;;;;0.70;0.50;;;18.80;99.90;;;;;;5113536;28;20206;-49
2023/08/03 14:19:16;;;;;;;1.47;0.60;;;18.70;99.90;;;;;;5113454;28;20174;-52
2023/08/03 14:21:43;;;;;;;1.30;0.60;;;18.70;99.90;;;;;;5114025;28;20190;-50
2023/08/03 14:24:08;;;;;;;1.30;0.57;;;18.60;99.90;;;;;;5095026;28;20194;-47
2023/08/03 14:26:34;;;;;;;1.17;0.60;;;18.50;99.90;;;;;;5113294;28;20202;-48
2023/08/03 14:28:59;;;;;;;1.33;0.80;;;18.30;99.90;;;;;;5115145;28;20185;-48
2023/08/03 14:31:25;;;;;;;0.87;0.57;;;18.20;99.90;;;;;;5117247;28;20186;-46
2023/08/03 14:33:51;;;;;;;1.07;0.80;;;18.10;99.90;;;;;;5098860;28;20187;-49
2023/08/03 14:36:17;;;;;;;3.00;0.70;;;18.10;99.90;;;;;;5116746;28;20297;-49
2023/08/03 14:38:42;;;;;;;1.80;0.70;;;18.00;99.90;;;;;;5117059;28;20274;-49
2023/08/03 14:41:14;;;;;;;2.73;0.83;;;17.90;99.90;;;;;;5116940;28;20186;-48
2023/08/03 14:43:40;;;;;;;2.07;0.70;;;18.00;99.90;;;;;;5116797;28;20201;-48
2023/08/03 14:46:06;;;;;;;2.80;0.80;;;17.90;99.90;;;;;;5098852;28;20202;-48
2023/08/03 14:48:32;;;;;;;1.10;0.50;;;17.90;99.90;;;;;;5116778;28;20733;-50
2023/08/03 14:50:58;;;;;;;2.83;0.97;;;17.90;99.90;;;;;;5116378;28;20517;-49
2023/08/03 14:53:23;;;;;;;0.70;0.60;;;17.80;99.90;;;;;;5116719;28;20182;-47
2023/08/03 14:55:51;;;;;;;0.90;0.70;;;17.90;99.90;;;;;;5116602;28;20223;-48
2023/08/03 14:58:16;;;;;;;1.87;1.30;;;17.90;99.90;;;;;;5116624;28;20186;-48
2023/08/03 15:00:42;;;;;;;4.23;1.07;;;17.90;99.90;;;;;;5116732;28;20665;-48
2023/08/03 15:03:08;;;;;;;3.03;1.20;;;17.90;99.90;;;;;;5116378;28;20270;-49
2023/08/03 15:05:34;;;;;;;2.73;1.07;;;17.80;99.90;;;;;;5097789;28;20206;-50
2023/08/03 15:07:59;;;;;;;3.53;1.33;;;17.80;99.90;;;;;;5116168;28;20266;-48
2023/08/03 15:10:25;;;;;;;4.90;1.30;;;17.80;99.90;;;;;;5097941;28;20240;-49
2023/08/03 15:12:50;;;;;;;5.43;1.80;;;17.90;99.90;;;;;;5097799;28;20242;-48
2023/08/03 15:15:16;;;;;;;4.10;1.50;;;17.80;99.90;;;;;;5115906;28;20178;-49
2023/08/03 15:17:42;;;;;;;4.47;1.50;;;17.80;99.90;;;;;;5097707;28;20562;-49
2023/08/03 15:20:08;;;;;;;3.87;1.40;;;17.80;99.90;;;;;;5115959;28;20182;-49
2023/08/03 15:22:33;;;;;;;7.17;1.60;;;17.80;99.90;;;;;;5080607;28;20218;-50
2023/08/03 15:24:59;;;;;;;4.30;1.83;;;18.00;99.90;;;;;;5116059;28;20272;-50
2023/08/03 15:27:25;;;;;;;6.33;1.97;;;18.00;99.90;;;;;;5097387;28;20295;-50
2023/08/03 15:29:50;;;;;;;6.83;1.97;;;18.10;99.90;;;;;;5115842;28;20212;-49
2023/08/03 15:32:16;;;;;;;6.07;1.90;;;18.10;99.90;;;;;;5115723;28;20569;-48
2023/08/03 15:34:42;;;;;;;2.80;1.47;;;18.30;99.90;;;;;;5115692;28;20263;-48
2023/08/03 15:37:08;;;;;;;5.37;1.63;;;18.30;99.90;;;;;;5116041;28;20208;-49
2023/08/03 15:39:35;;;;;;;3.87;1.60;;;18.40;99.90;;;;;;5115089;28;20244;-49
2023/08/03 15:42:00;;;;;;;3.37;1.70;;;18.50;99.90;;;;;;5097134;28;20196;-48
2023/08/03 15:44:26;;;;;;;3.70;1.60;;;18.50;99.90;;;;;;5115784;28;20186;-49
2023/08/03 15:46:53;;;;;;;6.10;2.13;;;18.50;99.90;;;;;;5115491;28;20210;-48
2023/08/03 15:49:21;;;;;;;5.97;1.80;;;18.60;99.90;;;;;;5097085;28;20676;-48
2023/08/03 15:51:47;;;;;;;4.77;1.93;;;18.60;99.90;;;;;;5097088;28;20205;-50
2023/08/03 15:54:13;;;;;;;4.40;1.83;;;18.60;99.90;;;;;;5115465;28;20190;-49
2023/08/03 15:56:38;;;;;;;5.97;1.90;;;18.60;99.90;;;;;;5115574;28;20206;-49
2023/08/03 15:59:04;;;;;;;4.83;1.83;;;18.60;99.90;;;;;;5098239;28;20281;-51
2023/08/03 16:01:29;;;;;;;5.77;1.80;;;18.60;99.90;;;;;;5116075;28;20585;-49
2023/08/03 16:03:55;;;;;;;12.53;1.87;;;18.60;99.90;;;;;;5115267;28;20210;-44
2023/08/03 16:06:21;;;;;;;3.97;1.57;;;18.70;99.90;;;;;;5096947;28;20575;-44
2023/08/03 16:08:47;;;;;;;7.00;2.07;;;18.70;99.90;;;;;;5115465;28;20271;-44
2023/08/03 16:11:13;;;;;;;6.63;2.20;;;18.70;99.90;;;;;;5115068;28;20233;-44
2023/08/03 16:13:39;;;;;;;5.87;1.97;;;18.70;99.90;;;;;;5115427;28;20204;-44
2023/08/03 16:16:05;;;;;;;5.40;1.80;;;18.70;99.90;;;;;;5114797;28;20292;-44
2023/08/03 16:18:32;;;;;;;6.80;1.83;;;18.80;99.90;;;;;;5114840;28;20182;-44
2023/08/03 16:21:05;;;;;;;6.87;1.87;;;18.80;99.90;;;;;;5115109;28;20182;-44
2023/08/03 16:23:31;;;;;;;9.87;2.00;;;18.80;99.90;;;;;;5115328;28;20202;-43
2023/08/03 16:25:56;;;;;;;6.63;2.57;;;18.80;99.90;;;;;;5114598;28;20293;-46
2023/08/03 16:28:22;;;;;;;5.90;1.60;;;18.80;99.90;;;;;;5114873;28;20226;-46
2023/08/03 16:30:48;;;;;;;4.70;1.80;;;18.90;99.90;;;;;;5115033;28;20646;-43
2023/08/03 16:33:16;;;;;;;5.97;1.60;;;18.90;99.90;;;;;;5114916;28;20546;-43
2023/08/03 16:35:42;;;;;;;6.63;1.97;;;19.00;99.90;;;;;;5114617;28;20279;-43